Time;durP1;ratioP1;P1;durP2;ratioP2;P2;SDS_P1;SDS_P2;PMS_P1;PMS_P2;Temp;Humidity;BMP_temperature;BMP_pressure;BME280_temperature;BME280_humidity;BME280_pressure;Samples;Min_cycle;Max_cycle;Signal;HPM_P1;HPM_P2
2021/10/15 00:01:08;;;;;;;1.20;0.50;;;;;;;16.25;41.13;95615.31;5070990;28;20034;-72
2021/10/15 00:03:33;;;;;;;1.15;0.50;;;;;;;16.25;41.09;95609.91;5087390;28;20020;-72
2021/10/15 00:05:59;;;;;;;0.88;0.50;;;;;;;16.26;41.17;95616.97;5104163;28;20031;-72
2021/10/15 00:08:24;;;;;;;0.80;0.40;;;;;;;16.25;41.06;95612.63;5070904;28;20137;-72
2021/10/15 00:10:50;;;;;;;1.10;0.52;;;;;;;16.24;40.61;95613.63;5087108;28;20422;-72
2021/10/15 00:13:15;;;;;;;1.02;0.40;;;;;;;16.22;40.46;95607.63;5088884;28;20082;-72
2021/10/15 00:15:41;;;;;;;1.00;0.30;;;;;;;16.21;40.92;95604.06;5088353;28;20098;-72
2021/10/15 00:18:06;;;;;;;1.20;0.50;;;;;;;16.21;41.02;95605.94;5088800;28;20406;-72
2021/10/15 00:20:31;;;;;;;1.02;0.40;;;;;;;16.18;40.58;95604.50;5088034;28;20417;-72
2021/10/15 00:22:57;;;;;;;0.75;0.40;;;;;;;16.16;40.59;95602.00;5087298;28;20510;-72
2021/10/15 00:25:22;;;;;;;0.40;0.20;;;;;;;16.16;40.50;95599.28;5088171;28;20471;-72
2021/10/15 00:27:48;;;;;;;1.10;0.40;;;;;;;16.16;40.83;95601.16;5086091;28;20494;-72
2021/10/15 00:30:13;;;;;;;0.68;0.30;;;;;;;16.15;40.63;95603.03;5088935;28;20410;-72
2021/10/15 00:32:39;;;;;;;0.50;0.22;;;;;;;16.15;40.63;95603.03;5103418;28;20035;-72
2021/10/15 00:35:04;;;;;;;0.45;0.20;;;;;;;16.15;40.46;95604.91;5088519;28;20028;-72
2021/10/15 00:37:30;;;;;;;0.47;0.20;;;;;;;16.15;40.58;95605.72;5087787;28;20486;-72
2021/10/15 00:39:55;;;;;;;0.60;0.20;;;;;;;16.15;40.63;95594.91;5088550;28;20085;-72
2021/10/15 00:42:20;;;;;;;0.50;0.20;;;;;;;16.15;40.77;95603.03;5087765;28;20089;-72
2021/10/15 00:44:46;;;;;;;0.45;0.10;;;;;;;16.16;40.66;95595.75;5088196;28;20020;-72
2021/10/15 00:47:11;;;;;;;0.35;0.20;;;;;;;16.17;40.66;95597.41;5087914;28;20024;-72
2021/10/15 00:49:37;;;;;;;0.65;0.20;;;;;;;16.16;40.75;95590.34;5087780;28;20035;-72
2021/10/15 00:52:02;;;;;;;0.70;0.28;;;;;;;16.17;40.85;95584.72;5088300;28;20028;-72
2021/10/15 00:54:28;;;;;;;0.50;0.20;;;;;;;16.18;40.72;95567.47;5069128;28;20113;-72
2021/10/15 00:56:53;;;;;;;0.80;0.20;;;;;;;16.21;40.67;95577.03;5087011;28;20035;-72
2021/10/15 00:59:19;;;;;;;0.85;0.20;;;;;;;16.24;40.61;95575.75;5069188;28;20106;-72
2021/10/15 01:01:44;;;;;;;0.40;0.17;;;;;;;16.24;40.70;95578.47;5088007;28;20096;-72
2021/10/15 01:04:10;;;;;;;0.68;0.20;;;;;;;16.25;40.75;95574.72;5069347;28;20063;-72
2021/10/15 01:06:35;;;;;;;0.60;0.20;;;;;;;16.25;40.61;95577.44;5086253;28;20036;-72
2021/10/15 01:09:01;;;;;;;0.25;0.20;;;;;;;16.26;40.82;95577.22;5086573;28;20020;-72
2021/10/15 01:11:26;;;;;;;0.38;0.20;;;;;;;16.26;40.74;95573.69;5085526;28;20024;-72
2021/10/15 01:13:52;;;;;;;0.45;0.20;;;;;;;16.27;40.70;95569.91;5086792;28;20031;-72
2021/10/15 01:16:22;;;;;;;0.68;0.20;;;;;;;16.27;40.75;95575.34;5068661;28;20062;-72
2021/10/15 01:18:47;;;;;;;0.35;0.20;;;;;;;16.29;40.68;95562.44;5070030;28;20044;-72
2021/10/15 01:21:13;;;;;;;0.65;0.20;;;;;;;16.29;40.74;95551.59;5085872;28;20058;-72
2021/10/15 01:23:38;;;;;;;0.38;0.20;;;;;;;16.29;40.77;95551.59;5085838;28;20028;-72
2021/10/15 01:26:04;;;;;;;0.75;0.30;;;;;;;16.29;40.68;95543.50;5069250;28;20053;-72
2021/10/15 01:28:30;;;;;;;0.40;0.10;;;;;;;16.30;40.71;95553.25;5085544;28;20030;-72
2021/10/15 01:30:56;;;;;;;0.28;0.10;;;;;;;16.27;40.75;95554.53;5086582;28;20047;-72
2021/10/15 01:33:21;;;;;;;0.28;0.15;;;;;;;16.27;40.83;95551.81;5068390;28;20031;-72
2021/10/15 01:35:46;;;;;;;0.15;0.10;;;;;;;16.27;40.70;95553.69;5069334;28;20028;-72
2021/10/15 01:38:12;;;;;;;0.20;0.10;;;;;;;16.27;40.64;95551.81;5085089;28;20097;-72
2021/10/15 01:40:38;;;;;;;0.22;0.10;;;;;;;16.26;40.61;95547.47;5102570;28;20054;-72
2021/10/15 01:43:03;;;;;;;0.20;0.20;;;;;;;16.26;40.45;95552.03;5085569;28;20032;-72
2021/10/15 01:45:29;;;;;;;0.60;0.10;;;;;;;16.24;40.40;95544.13;5085328;28;20511;-72
2021/10/15 01:47:55;;;;;;;0.10;0.10;;;;;;;16.24;40.50;95548.69;5086166;28;20028;-72
2021/10/15 01:50:21;;;;;;;0.30;0.10;;;;;;;16.24;40.67;95529.75;5068270;28;20434;-72
2021/10/15 01:52:47;;;;;;;0.20;0.10;;;;;;;16.22;40.68;95532.66;5068896;28;20490;-72
2021/10/15 01:55:12;;;;;;;0.10;0.10;;;;;;;16.22;40.60;95529.97;5068235;28;20024;-72
2021/10/15 01:57:38;;;;;;;0.28;0.10;;;;;;;16.23;40.56;95528.94;5085591;28;20070;-72
2021/10/15 02:00:08;;;;;;;0.25;0.10;;;;;;;16.22;40.44;95518.34;5051516;28;20443;-72
2021/10/15 02:02:33;;;;;;;0.10;0.10;;;;;;;16.22;40.56;95529.16;5068619;28;20056;-72
2021/10/15 02:04:59;;;;;;;0.40;0.13;;;;;;;16.20;40.86;95523.94;5068467;28;20089;-72
2021/10/15 02:07:24;;;;;;;0.22;0.10;;;;;;;16.20;40.77;95526.66;5068169;28;20489;-72
2021/10/15 02:09:49;;;;;;;0.40;0.13;;;;;;;16.21;40.64;95531.03;5086817;28;20524;-72
2021/10/15 02:12:15;;;;;;;0.10;0.10;;;;;;;16.21;40.50;95528.31;5067856;28;20089;-72
2021/10/15 02:14:40;;;;;;;0.22;0.10;;;;;;;16.23;40.60;95522.69;5085229;28;20024;-72
2021/10/15 02:17:06;;;;;;;0.32;0.10;;;;;;;16.20;40.37;95521.25;5086117;28;20016;-72
2021/10/15 02:19:31;;;;;;;0.10;0.10;;;;;;;16.18;40.43;95524.16;5084867;28;20048;-72
2021/10/15 02:21:57;;;;;;;0.20;0.10;;;;;;;16.17;40.60;95521.63;5084901;28;20024;-72
2021/10/15 02:24:22;;;;;;;0.25;0.10;;;;;;;16.20;40.47;95518.53;5068077;28;20028;-72
2021/10/15 02:26:48;;;;;;;0.38;0.20;;;;;;;16.21;40.47;95522.91;5085088;28;20024;-72
2021/10/15 02:29:13;;;;;;;0.20;0.10;;;;;;;16.21;40.58;95517.50;5084518;28;20032;-72
2021/10/15 02:31:39;;;;;;;0.20;0.10;;;;;;;16.22;40.62;95516.44;5085155;28;20034;-72
2021/10/15 02:34:04;;;;;;;0.10;0.10;;;;;;;16.23;40.60;95518.13;5084507;28;20447;-72
2021/10/15 02:36:29;;;;;;;0.15;0.10;;;;;;;16.23;40.55;95515.41;5085288;28;20022;-72
2021/10/15 02:38:55;;;;;;;0.20;0.10;;;;;;;16.24;40.50;95508.94;5084177;28;20492;-72
2021/10/15 02:41:20;;;;;;;0.17;0.10;;;;;;;16.25;40.49;95507.09;5084960;28;20376;-72
2021/10/15 02:43:46;;;;;;;0.17;0.10;;;;;;;16.26;40.46;95503.31;5085910;28;20426;-72
2021/10/15 02:46:13;;;;;;;0.10;0.10;;;;;;;16.25;40.45;95496.25;5051091;28;20403;-72
2021/10/15 02:48:38;;;;;;;0.10;0.00;;;;;;;16.25;40.53;95501.66;5068418;28;20124;-72
2021/10/15 02:51:03;;;;;;;1.75;0.20;;;;;;;16.26;40.56;95503.31;5087156;28;20097;-72
2021/10/15 02:53:29;;;;;;;0.20;0.20;;;;;;;16.25;40.39;95499.78;5072573;28;20076;-72
2021/10/15 02:55:54;;;;;;;0.20;0.10;;;;;;;16.24;40.63;95497.28;5071290;28;20020;-72
2021/10/15 02:58:20;;;;;;;0.10;0.10;;;;;;;16.27;40.32;95504.97;5089200;28;20017;-72
2021/10/15 03:00:45;;;;;;;0.28;0.20;;;;;;;16.26;40.47;95493.34;5071402;28;20077;-72
2021/10/15 03:03:10;;;;;;;0.10;0.10;;;;;;;16.26;40.48;95497.91;5090234;28;20016;-72
2021/10/15 03:05:36;;;;;;;0.13;0.10;;;;;;;16.25;40.54;95488.16;5088988;28;20024;-72
2021/10/15 03:08:01;;;;;;;0.10;0.10;;;;;;;16.25;40.35;95488.16;5071191;28;20081;-72
2021/10/15 03:10:27;;;;;;;0.47;0.15;;;;;;;16.25;40.52;95488.16;5089135;28;20028;-72
2021/10/15 03:12:52;;;;;;;0.22;0.10;;;;;;;16.25;40.41;95494.38;5070952;28;20016;-72
2021/10/15 03:15:18;;;;;;;0.10;0.10;;;;;;;16.25;40.47;95494.38;5089067;28;20117;-72
2021/10/15 03:17:43;;;;;;;0.28;0.10;;;;;;;16.24;40.57;95486.47;5071307;28;20475;-72
2021/10/15 03:20:09;;;;;;;0.10;0.10;;;;;;;16.26;40.58;95492.50;5071337;28;20055;-72
2021/10/15 03:22:34;;;;;;;0.25;0.10;;;;;;;16.26;40.26;95495.22;5071347;28;20024;-72
2021/10/15 03:25:00;;;;;;;0.10;0.10;;;;;;;16.23;40.42;95491.06;5071147;28;20474;-72
2021/10/15 03:27:25;;;;;;;0.30;0.10;;;;;;;16.24;40.53;95481.03;5088619;28;20572;-72
2021/10/15 03:29:51;;;;;;;0.20;0.10;;;;;;;16.22;40.57;95467.72;5088868;28;20046;-72
2021/10/15 03:32:16;;;;;;;0.77;0.30;;;;;;;16.21;40.55;95468.78;5090199;28;20484;-72
2021/10/15 03:34:42;;;;;;;0.15;0.10;;;;;;;16.23;40.41;95471.28;5087679;28;20443;-74
2021/10/15 03:37:07;;;;;;;0.35;0.10;;;;;;;16.21;40.62;95474.19;5071277;28;20024;-71
2021/10/15 03:39:32;;;;;;;0.10;0.10;;;;;;;16.21;40.52;95478.75;5089041;28;20028;-72
2021/10/15 03:41:58;;;;;;;0.35;0.10;;;;;;;16.21;40.65;95484.19;5088191;28;20028;-72
2021/10/15 03:44:23;;;;;;;0.10;0.10;;;;;;;16.21;40.58;95478.75;5087823;28;20046;-71
2021/10/15 03:46:49;;;;;;;0.32;0.10;;;;;;;16.21;40.60;95476.91;5070742;28;20024;-71
2021/10/15 03:49:14;;;;;;;0.10;0.10;;;;;;;16.22;40.69;95480.44;5071330;28;20081;-71
2021/10/15 03:51:39;;;;;;;0.30;0.10;;;;;;;16.21;40.69;95471.50;5087436;28;20035;-71
2021/10/15 03:54:05;;;;;;;0.10;0.10;;;;;;;16.23;40.68;95482.09;5087881;28;20058;-71
2021/10/15 03:56:30;;;;;;;0.20;0.10;;;;;;;16.25;40.56;95480.03;5087439;28;20046;-71
2021/10/15 03:58:56;;;;;;;0.32;0.17;;;;;;;16.24;40.56;95476.47;5071344;28;20024;-71
2021/10/15 04:01:21;;;;;;;0.28;0.10;;;;;;;16.23;40.49;95474.81;5070551;28;20031;-71
2021/10/15 04:03:47;;;;;;;0.28;0.10;;;;;;;16.23;40.63;95474.81;5087636;28;20027;-71
2021/10/15 04:06:12;;;;;;;0.40;0.10;;;;;;;16.23;40.55;95460.44;5087659;28;20024;-71
2021/10/15 04:08:38;;;;;;;0.20;0.10;;;;;;;16.23;40.66;95458.59;5088492;28;20036;-71
2021/10/15 04:11:03;;;;;;;0.30;0.10;;;;;;;16.23;40.64;95457.75;5089176;28;20020;-71
2021/10/15 04:13:28;;;;;;;0.20;0.10;;;;;;;16.23;40.55;95457.75;5086782;28;20441;-71
2021/10/15 04:15:56;;;;;;;0.20;0.10;;;;;;;16.23;40.54;95455.03;5087801;28;20023;-71
2021/10/15 04:18:21;;;;;;;1.20;0.20;;;;;;;16.19;40.70;95446.50;5086718;28;20027;-71
2021/10/15 04:20:47;;;;;;;0.40;0.20;;;;;;;16.21;40.62;95447.13;5088640;28;20047;-71
2021/10/15 04:23:12;;;;;;;0.43;0.20;;;;;;;16.22;40.71;95459.63;5087306;28;20016;-71
2021/10/15 04:25:38;;;;;;;0.40;0.20;;;;;;;16.22;40.60;95458.81;5088592;28;20024;-71
2021/10/15 04:28:04;;;;;;;0.52;0.20;;;;;;;16.22;40.70;95458.81;5088965;28;20028;-72
2021/10/15 04:30:29;;;;;;;0.35;0.10;;;;;;;16.22;40.62;95459.63;5103456;28;20123;-71
2021/10/15 04:32:55;;;;;;;0.38;0.20;;;;;;;16.21;40.71;95451.72;5088926;28;20039;-71
2021/10/15 04:35:20;;;;;;;0.10;0.10;;;;;;;16.21;40.70;95459.81;5087739;28;20020;-72
2021/10/15 04:37:46;;;;;;;0.55;0.20;;;;;;;16.19;40.75;95457.34;5087349;28;20047;-71
2021/10/15 04:40:11;;;;;;;0.50;0.20;;;;;;;16.21;40.59;95449.00;5053062;28;20039;-73
2021/10/15 04:42:38;;;;;;;0.20;0.10;;;;;;;16.19;40.68;95463.59;5088431;28;20514;-73
2021/10/15 04:45:04;;;;;;;0.13;0.10;;;;;;;16.21;40.62;95476.06;5088306;28;20028;-74
2021/10/15 04:47:29;;;;;;;0.50;0.25;;;;;;;16.19;40.62;95460.88;5069470;28;20043;-73
2021/10/15 04:49:55;;;;;;;0.82;0.20;;;;;;;16.19;40.57;95450.06;5070887;28;20466;-73
2021/10/15 04:52:20;;;;;;;0.50;0.20;;;;;;;16.19;40.58;95462.75;5102860;28;20020;-73
2021/10/15 04:54:46;;;;;;;0.63;0.22;;;;;;;16.19;40.59;95466.28;5087124;28;20046;-73
2021/10/15 04:57:11;;;;;;;0.20;0.10;;;;;;;16.17;40.79;95471.06;5086288;28;20012;-73
2021/10/15 04:59:36;;;;;;;0.45;0.17;;;;;;;16.17;40.57;95467.53;5069531;28;20506;-73
2021/10/15 05:02:02;;;;;;;0.43;0.13;;;;;;;16.19;40.88;95471.69;5087928;28;20458;-73
2021/10/15 05:04:27;;;;;;;0.10;0.10;;;;;;;16.21;40.77;95476.06;5086275;28;20530;-72
2021/10/15 05:06:57;;;;;;;0.65;0.20;;;;;;;16.21;40.59;95470.66;5069884;28;20232;-72
2021/10/15 05:09:42;;;;;;;0.73;0.30;;;;;;;16.23;40.62;95473.97;5069625;28;20464;-72
2021/10/15 05:12:13;;;;;;;0.75;0.20;;;;;;;16.23;40.73;95471.28;5086960;28;20029;-74
2021/10/15 05:14:39;;;;;;;0.20;0.13;;;;;;;16.26;40.71;95476.25;5085334;28;20051;-71
2021/10/15 05:17:04;;;;;;;0.35;0.20;;;;;;;16.27;40.71;95488.75;5069312;28;20410;-72
2021/10/15 05:19:30;;;;;;;0.85;0.30;;;;;;;16.27;40.63;95484.16;5051872;28;20189;-71
2021/10/15 05:21:55;;;;;;;0.65;0.20;;;;;;;16.28;40.59;95480.41;5069295;28;20478;-72
2021/10/15 05:24:21;;;;;;;0.43;0.20;;;;;;;16.29;40.56;95478.53;5086411;28;20032;-72
2021/10/15 05:26:46;;;;;;;0.70;0.20;;;;;;;16.28;40.51;95468.78;5086972;28;20024;-72
2021/10/15 05:29:12;;;;;;;0.55;0.20;;;;;;;16.27;40.59;95469.78;5087956;28;20073;-73
2021/10/15 05:31:37;;;;;;;0.52;0.20;;;;;;;16.23;40.47;95460.44;5085390;28;20020;-73
2021/10/15 05:34:02;;;;;;;0.93;0.30;;;;;;;16.24;40.48;95473.78;5086176;28;20028;-72
2021/10/15 05:36:28;;;;;;;2.00;0.22;;;;;;;16.23;40.50;95455.88;5085528;28;20024;-74
2021/10/15 05:38:53;;;;;;;0.47;0.20;;;;;;;16.21;40.38;95457.13;5086013;28;20409;-71
2021/10/15 05:41:19;;;;;;;0.43;0.20;;;;;;;16.21;40.40;95462.53;5069282;28;20047;-74
2021/10/15 05:43:45;;;;;;;0.60;0.30;;;;;;;16.21;40.49;95457.13;5085056;28;20123;-72
2021/10/15 05:46:10;;;;;;;0.55;0.28;;;;;;;16.21;40.55;95457.13;5069424;28;20028;-72
2021/10/15 05:48:36;;;;;;;0.85;0.30;;;;;;;16.19;40.52;95469.00;5086360;28;20099;-72
2021/10/15 05:51:01;;;;;;;0.63;0.30;;;;;;;16.17;40.66;95471.06;5086001;28;20031;-72
2021/10/15 05:53:27;;;;;;;0.82;0.20;;;;;;;16.17;40.59;95479.19;5068190;28;20089;-72
2021/10/15 05:58:49;;;;;;;0.52;0.20;;;;;;;16.17;40.60;95471.06;5085682;28;20131;-72
2021/10/15 06:01:15;;;;;;;0.95;0.30;;;;;;;16.18;40.62;95474.63;5086626;28;20020;-72
2021/10/15 06:03:43;;;;;;;0.60;0.22;;;;;;;16.16;40.51;95477.53;5087093;28;20032;-73
2021/10/15 06:14:29;;;;;;;0.77;0.30;;;;;;;16.17;40.64;95445.88;5043273;28;20086;-73
2021/10/15 06:16:59;;;;;;;0.63;0.30;;;;;;;16.17;40.74;95435.91;5044197;28;20029;-72
2021/10/15 06:19:26;;;;;;;1.38;0.40;;;;;;;16.17;40.49;95435.91;5064570;28;20044;-72
2021/10/15 06:21:52;;;;;;;1.38;0.30;;;;;;;16.17;40.63;95433.19;5068624;28;20025;-72
2021/10/15 06:24:18;;;;;;;1.02;0.40;;;;;;;16.17;40.86;95435.91;5085873;28;20020;-70
2021/10/15 06:26:43;;;;;;;1.45;0.50;;;;;;;16.19;40.69;95436.53;5068326;28;20039;-71
2021/10/15 06:29:09;;;;;;;1.40;0.50;;;;;;;16.18;40.66;95445.69;5052099;28;20027;-73
2021/10/15 06:31:34;;;;;;;1.55;0.50;;;;;;;16.20;40.63;95437.38;5084441;28;20344;-73
2021/10/15 06:34:00;;;;;;;0.60;0.30;;;;;;;16.22;40.71;95442.56;5068354;28;20556;-73
2021/10/15 06:36:25;;;;;;;1.23;0.50;;;;;;;16.23;40.60;95439.66;5084563;28;20031;-72
2021/10/15 06:38:51;;;;;;;1.17;0.50;;;;;;;16.26;40.67;95441.09;5085097;28;20089;-73
2021/10/15 06:41:16;;;;;;;1.65;0.55;;;;;;;16.27;40.71;95448.16;5068002;28;20062;-73
2021/10/15 06:43:42;;;;;;;1.85;0.60;;;;;;;16.27;40.68;95442.75;5067732;28;20054;-72
2021/10/15 06:46:07;;;;;;;1.30;0.50;;;;;;;16.26;40.67;95447.34;5086308;28;20020;-73
2021/10/15 06:48:33;;;;;;;1.35;0.60;;;;;;;16.26;40.79;95450.03;5086005;28;20020;-72
2021/10/15 06:50:59;;;;;;;1.25;0.50;;;;;;;16.27;40.66;95450.84;5085109;28;20035;-72
2021/10/15 06:53:24;;;;;;;1.63;0.50;;;;;;;16.25;40.81;95448.38;5084364;28;20028;-72
2021/10/15 06:55:50;;;;;;;1.90;0.82;;;;;;;16.25;40.65;95450.25;5086364;28;20430;-73
2021/10/15 06:58:15;;;;;;;1.80;0.70;;;;;;;16.25;40.79;95452.97;5084333;28;20406;-72
2021/10/15 07:00:41;;;;;;;1.38;0.63;;;;;;;16.26;40.71;95460.03;5086293;28;20403;-72
2021/10/15 07:03:16;;;;;;;2.05;0.90;;;;;;;16.24;40.82;95451.28;5085528;28;20024;-72
2021/10/15 07:05:41;;;;;;;1.45;0.60;;;;;;;16.25;40.70;95450.25;5067681;28;20579;-72
2021/10/15 07:08:07;;;;;;;2.47;0.82;;;;;;;16.25;40.72;95453.78;5084947;28;20028;-73
2021/10/15 07:10:32;;;;;;;1.48;0.77;;;;;;;16.25;40.41;95447.56;5067224;28;20406;-72
2021/10/15 07:12:58;;;;;;;1.15;0.73;;;;;;;16.24;40.88;95448.56;5084777;28;20032;-73
2021/10/15 07:15:24;;;;;;;2.30;0.98;;;;;;;16.23;40.85;95445.06;5084098;28;20032;-72
2021/10/15 07:17:49;;;;;;;3.05;0.80;;;;;;;16.24;40.89;95441.31;5084564;28;20028;-72
2021/10/15 07:20:15;;;;;;;1.42;0.63;;;;;;;16.23;40.96;95445.06;5067199;28;20040;-73
2021/10/15 07:22:41;;;;;;;1.50;0.75;;;;;;;16.24;41.05;95448.56;5067714;28;20055;-73
2021/10/15 07:25:07;;;;;;;1.98;0.80;;;;;;;16.25;41.03;95451.06;5084442;28;20401;-74
2021/10/15 07:27:32;;;;;;;2.80;1.10;;;;;;;16.26;40.97;95455.47;5067316;28;20025;-73
2021/10/15 07:29:57;;;;;;;2.17;1.00;;;;;;;16.28;40.95;95447.13;5067954;28;20031;-73
2021/10/15 07:32:23;;;;;;;1.85;0.80;;;;;;;16.28;40.89;95439.00;5085282;28;20027;-74
2021/10/15 07:34:49;;;;;;;1.80;0.80;;;;;;;16.28;41.02;95449.84;5067804;28;20027;-71
2021/10/15 07:37:14;;;;;;;2.20;0.80;;;;;;;16.29;40.94;95454.19;5051813;28;20530;-72
2021/10/15 07:39:39;;;;;;;2.60;1.00;;;;;;;16.29;40.92;95443.38;5088458;28;20036;-72
2021/10/15 07:42:05;;;;;;;1.80;0.85;;;;;;;16.29;40.91;95437.94;5089143;28;20490;-73
2021/10/15 07:44:31;;;;;;;2.25;0.90;;;;;;;16.30;40.92;95447.72;5071018;28;20496;-73
2021/10/15 07:46:57;;;;;;;2.10;0.90;;;;;;;16.28;40.98;95439.81;5071868;28;20387;-73
2021/10/15 07:49:22;;;;;;;2.00;0.90;;;;;;;16.33;41.13;95441.88;5070695;28;20505;-73
2021/10/15 07:51:48;;;;;;;2.42;0.95;;;;;;;16.34;40.81;95435.44;5071582;28;20426;-72
2021/10/15 07:54:13;;;;;;;2.10;0.98;;;;;;;16.36;41.04;95437.94;5087347;28;20069;-72
2021/10/15 07:56:39;;;;;;;3.17;1.00;;;;;;;16.37;40.92;95443.13;5089456;28;20020;-72
2021/10/15 07:59:04;;;;;;;2.50;1.30;;;;;;;16.38;40.92;95433.16;5070434;28;20028;-73
2021/10/15 08:01:29;;;;;;;1.88;0.95;;;;;;;16.39;41.04;95437.50;5071037;28;20466;-73
2021/10/15 08:03:56;;;;;;;2.00;1.00;;;;;;;16.39;40.75;95432.94;5087894;28;20459;-73
2021/10/15 08:06:21;;;;;;;2.20;1.10;;;;;;;16.41;40.95;95435.44;5070189;28;20443;-72
2021/10/15 08:08:49;;;;;;;2.25;1.00;;;;;;;16.40;40.96;95429.16;5088245;28;20020;-72
2021/10/15 08:11:14;;;;;;;3.10;1.13;;;;;;;16.43;40.85;95439.56;5088170;28;20063;-73
2021/10/15 08:13:40;;;;;;;2.20;1.10;;;;;;;16.43;40.89;95442.28;5071012;28;20040;-72
2021/10/15 08:16:05;;;;;;;3.08;1.20;;;;;;;16.43;40.99;95444.97;5070030;28;20020;-73
2021/10/15 08:18:31;;;;;;;1.95;1.05;;;;;;;16.42;40.92;95448.75;5070609;28;20043;-73
2021/10/15 08:20:57;;;;;;;3.08;1.30;;;;;;;16.42;40.85;95448.75;5087131;28;20048;-72
2021/10/15 08:23:24;;;;;;;2.50;1.30;;;;;;;16.44;40.98;95448.53;5087043;28;20198;-73
2021/10/15 08:25:49;;;;;;;2.45;1.30;;;;;;;16.44;40.86;95452.03;5088072;28;20024;-72
2021/10/15 08:28:15;;;;;;;1.98;1.13;;;;;;;16.42;41.05;95437.91;5086673;28;20031;-73
2021/10/15 08:30:40;;;;;;;2.60;1.10;;;;;;;16.43;40.94;95444.97;5070865;28;20043;-73
2021/10/15 08:33:06;;;;;;;2.60;1.33;;;;;;;16.44;40.94;95440.41;5086675;28;20024;-73
2021/10/15 08:35:31;;;;;;;2.50;1.40;;;;;;;16.43;40.90;95436.88;5088342;28;20024;-72
2021/10/15 08:37:57;;;;;;;2.55;1.10;;;;;;;16.44;40.93;95440.41;5086889;28;20024;-72
2021/10/15 08:40:23;;;;;;;2.63;1.25;;;;;;;16.43;41.10;95436.88;5088256;28;20067;-72
2021/10/15 08:42:52;;;;;;;2.83;1.50;;;;;;;16.44;40.94;95430.41;5070201;28;20085;-72
2021/10/15 08:45:29;;;;;;;2.95;1.85;;;;;;;16.45;41.17;95436.66;5053119;28;20441;-72
2021/10/15 08:47:54;;;;;;;3.13;1.58;;;;;;;16.44;41.00;95435.00;5070849;28;20024;-72
2021/10/15 08:50:20;;;;;;;2.88;1.27;;;;;;;16.43;41.08;95436.88;5052145;28;20231;-72
2021/10/15 08:52:46;;;;;;;2.95;1.30;;;;;;;16.42;41.18;95432.50;5070429;28;20094;-72
2021/10/15 08:55:11;;;;;;;2.58;1.30;;;;;;;16.43;41.16;95434.16;5053091;28;20062;-72
2021/10/15 08:57:36;;;;;;;2.70;1.50;;;;;;;16.44;41.32;95435.81;5086752;28;20020;-72
2021/10/15 09:00:07;;;;;;;3.47;1.65;;;;;;;16.42;41.21;95429.78;5086658;28;20024;-72
2021/10/15 09:02:32;;;;;;;2.97;1.60;;;;;;;16.42;40.92;95431.66;5069832;28;20483;-72
2021/10/15 09:04:58;;;;;;;2.58;1.48;;;;;;;16.43;41.15;95427.91;5088414;28;20081;-72
2021/10/15 09:07:25;;;;;;;3.40;1.25;;;;;;;16.43;41.20;95427.91;5085821;28;20050;-72
2021/10/15 09:10:11;;;;;;;2.70;1.45;;;;;;;16.42;41.27;95428.97;5070183;28;20122;-72
2021/10/15 09:12:43;;;;;;;2.88;1.50;;;;;;;16.42;41.42;95429.78;5087353;28;20020;-72
2021/10/15 09:15:08;;;;;;;3.95;1.60;;;;;;;16.41;41.22;95420.00;5087595;28;20782;-72
2021/10/15 09:17:41;;;;;;;2.47;1.38;;;;;;;16.45;41.34;95425.81;5086216;28;20034;-72
2021/10/15 09:20:07;;;;;;;2.85;1.50;;;;;;;16.45;41.27;95431.22;5085886;28;20050;-72
2021/10/15 09:22:33;;;;;;;2.92;1.60;;;;;;;16.46;41.30;95424.75;5086696;28;20324;-72
2021/10/15 09:24:59;;;;;;;2.80;1.60;;;;;;;16.47;41.40;95423.75;5085772;28;20058;-73
2021/10/15 09:27:32;;;;;;;2.92;1.58;;;;;;;16.47;41.44;95423.75;5087430;28;20035;-72
2021/10/15 09:30:33;;;;;;;2.85;1.73;;;;;;;16.47;41.33;95422.91;5087368;28;20111;-74
2021/10/15 09:32:59;;;;;;;3.75;1.80;;;;;;;16.47;41.40;95422.91;5024173;28;20531;-73
2021/10/15 09:35:26;;;;;;;3.05;1.70;;;;;;;16.47;41.32;95422.91;5057013;28;20401;-73
2021/10/15 09:38:00;;;;;;;2.90;1.50;;;;;;;16.48;41.35;95422.69;5085463;28;20422;-73
2021/10/15 09:40:26;;;;;;;3.88;1.70;;;;;;;16.47;41.29;95429.16;5086274;28;20490;-73
2021/10/15 09:42:56;;;;;;;3.15;1.67;;;;;;;16.47;41.31;95425.59;5068344;28;20039;-73
2021/10/15 09:45:23;;;;;;;3.00;1.60;;;;;;;16.48;41.35;95435.38;5085945;28;20056;-72
2021/10/15 09:47:59;;;;;;;2.47;1.40;;;;;;;16.48;41.33;95424.53;5087312;28;20107;-73
2021/10/15 09:50:26;;;;;;;3.10;1.85;;;;;;;16.47;41.32;95426.44;5052963;28;20028;-72
2021/10/15 09:52:55;;;;;;;2.83;1.55;;;;;;;16.48;41.37;95425.38;5069327;28;20032;-73
2021/10/15 09:55:36;;;;;;;2.88;1.73;;;;;;;16.49;41.38;95428.94;5085129;28;20028;-72
2021/10/15 09:58:19;;;;;;;2.65;1.45;;;;;;;16.47;41.63;95433.72;5086020;28;20054;-72
2021/10/15 10:00:49;;;;;;;2.63;1.45;;;;;;;16.48;41.35;95438.09;5069694;28;20024;-73
2021/10/15 10:03:15;;;;;;;2.70;1.42;;;;;;;16.42;41.50;95427.09;5085088;28;20505;-73
2021/10/15 10:05:40;;;;;;;2.50;1.40;;;;;;;16.48;41.40;95438.09;5085688;28;20474;-72
2021/10/15 10:08:06;;;;;;;2.65;1.50;;;;;;;16.47;41.31;95431.03;5086256;28;20031;-72
2021/10/15 10:10:34;;;;;;;2.40;1.42;;;;;;;16.47;41.49;95431.84;5068875;28;20428;-72
2021/10/15 10:12:59;;;;;;;2.70;1.42;;;;;;;16.47;41.45;95428.31;5084825;28;20062;-72
2021/10/15 10:15:29;;;;;;;2.30;1.35;;;;;;;16.47;41.42;95425.59;5085588;28;20032;-73
2021/10/15 10:18:27;;;;;;;2.20;1.33;;;;;;;16.47;41.40;95425.59;5068479;28;20024;-73
2021/10/15 10:21:17;;;;;;;3.00;1.50;;;;;;;16.47;41.43;95422.91;5084496;28;20506;-73
2021/10/15 10:23:52;;;;;;;2.88;1.33;;;;;;;16.46;41.52;95415.84;5085124;28;20595;-72
2021/10/15 10:26:24;;;;;;;2.33;1.10;;;;;;;16.46;41.60;95426.66;5068342;28;20149;-73
2021/10/15 10:29:00;;;;;;;2.20;1.05;;;;;;;16.45;41.53;95417.69;5084938;28;20024;-72
2021/10/15 10:31:25;;;;;;;2.40;1.30;;;;;;;16.46;41.16;95410.41;5069018;28;20027;-72
2021/10/15 10:34:02;;;;;;;2.53;1.15;;;;;;;16.46;41.30;95415.84;5084327;28;20036;-73
2021/10/15 10:36:29;;;;;;;2.50;1.20;;;;;;;16.47;41.24;95403.94;5068873;28;20088;-73
2021/10/15 10:38:54;;;;;;;3.15;1.35;;;;;;;16.47;41.58;95403.94;5084432;28;20573;-73
2021/10/15 10:41:24;;;;;;;2.72;1.35;;;;;;;16.46;41.52;95403.09;5085152;28;20024;-72
2021/10/15 10:43:50;;;;;;;2.22;1.00;;;;;;;16.48;41.31;95397.47;5084823;28;20510;-73
2021/10/15 10:46:16;;;;;;;2.08;1.10;;;;;;;16.47;41.32;95393.13;5085882;28;20054;-73
2021/10/15 10:48:53;;;;;;;2.45;1.23;;;;;;;16.48;41.47;95386.66;5085359;28;20403;-73
2021/10/15 10:51:29;;;;;;;1.88;0.90;;;;;;;16.48;41.41;95387.50;5084383;28;20031;-72
2021/10/15 10:53:57;;;;;;;2.40;1.10;;;;;;;16.49;41.48;95382.91;5068141;28;20571;-73
2021/10/15 10:56:46;;;;;;;1.90;1.10;;;;;;;16.48;41.59;95378.53;5085762;28;20409;-73
2021/10/15 10:59:18;;;;;;;2.15;1.05;;;;;;;16.48;41.38;95383.94;5085747;28;20528;-72
2021/10/15 11:01:46;;;;;;;2.60;1.10;;;;;;;16.49;41.43;95377.50;5086988;28;20024;-73
2021/10/15 11:04:37;;;;;;;1.77;0.88;;;;;;;16.49;41.30;95372.09;5085788;28;20028;-73
2021/10/15 11:07:04;;;;;;;2.17;0.90;;;;;;;16.49;41.57;95372.09;5052658;28;20024;-72
2021/10/15 11:09:39;;;;;;;2.03;0.93;;;;;;;16.48;41.46;95379.38;5067962;28;20021;-73
2021/10/15 11:12:05;;;;;;;1.73;0.80;;;;;;;16.48;41.46;95370.41;5085884;28;20040;-72
2021/10/15 11:14:59;;;;;;;2.55;1.00;;;;;;;16.47;41.46;95347.94;5072442;28;20500;-73
2021/10/15 11:17:32;;;;;;;2.85;0.90;;;;;;;16.49;41.59;95350.44;5105263;28;20032;-72
2021/10/15 11:20:19;;;;;;;2.42;0.80;;;;;;;16.48;41.56;95348.75;5088402;28;20036;-73
2021/10/15 11:22:52;;;;;;;1.80;0.90;;;;;;;16.47;41.70;95352.53;5088590;28;20585;-73
2021/10/15 11:25:18;;;;;;;;;;;;;;;16.46;41.66;95340.84;5088523;28;20397;-72
2021/10/15 11:27:47;;;;;;;2.63;1.00;;;;;;;16.44;41.59;95348.38;5071949;28;19919;-73
2021/10/15 11:30:13;;;;;;;1.80;0.90;;;;;;;16.44;41.65;95342.97;5054238;28;20483;-73
2021/10/15 11:32:43;;;;;;;3.05;0.90;;;;;;;16.44;41.64;95340.25;5071815;28;20031;-72
2021/10/15 11:35:16;;;;;;;2.10;0.90;;;;;;;16.44;41.66;95329.44;5087791;28;20024;-73
2021/10/15 11:37:42;;;;;;;;;;;;;;;16.47;41.61;95326.28;5090216;28;20421;-73
2021/10/15 11:40:15;;;;;;;5.05;1.00;;;;;;;16.43;41.67;95327.75;5089466;28;20364;-73
2021/10/15 11:42:40;;;;;;;2.03;1.00;;;;;;;16.43;41.73;95328.59;5087943;28;20432;-72
2021/10/15 11:45:25;;;;;;;2.30;1.20;;;;;;;16.44;41.66;95322.13;5071479;28;20556;-73